sensor_id;sensor_type;location;lat;lon;timestamp;P1;durP1;ratioP1;P2;durP2;ratioP2
84317;SDS011;74497;51.654;14.238;2024-03-23T00:55:56;14.07;;;5.93;;
84317;SDS011;74497;51.654;14.238;2024-03-23T00:58:22;6.27;;;3.50;;
84317;SDS011;74497;51.654;14.238;2024-03-23T01:00:47;8.13;;;5.10;;
84317;SDS011;74497;51.654;14.238;2024-03-23T01:03:13;8.93;;;4.97;;
84317;SDS011;74497;51.654;14.238;2024-03-23T01:05:38;5.80;;;3.93;;
84317;SDS011;74497;51.654;14.238;2024-03-23T01:08:04;13.17;;;5.47;;
84317;SDS011;74497;51.654;14.238;2024-03-23T01:10:30;10.67;;;4.70;;
84317;SDS011;74497;51.654;14.238;2024-03-23T01:12:56;6.77;;;3.93;;
84317;SDS011;74497;51.654;14.238;2024-03-23T01:15:21;6.03;;;4.17;;
84317;SDS011;74497;51.654;14.238;2024-03-23T01:17:47;11.30;;;5.10;;
84317;SDS011;74497;51.654;14.238;2024-03-23T01:20:13;6.97;;;4.47;;
84317;SDS011;74497;51.654;14.238;2024-03-23T01:22:38;6.67;;;4.90;;
84317;SDS011;74497;51.654;14.238;2024-03-23T01:25:04;10.80;;;6.43;;
84317;SDS011;74497;51.654;14.238;2024-03-23T01:27:30;5.67;;;3.47;;
84317;SDS011;74497;51.654;14.238;2024-03-23T01:29:55;5.70;;;3.60;;
84317;SDS011;74497;51.654;14.238;2024-03-23T01:32:21;7.17;;;4.43;;
84317;SDS011;74497;51.654;14.238;2024-03-23T01:34:47;6.50;;;4.63;;
84317;SDS011;74497;51.654;14.238;2024-03-23T01:37:12;7.33;;;4.03;;
84317;SDS011;74497;51.654;14.238;2024-03-23T01:39:38;8.43;;;4.57;;
84317;SDS011;74497;51.654;14.238;2024-03-23T01:42:04;9.97;;;4.67;;
84317;SDS011;74497;51.654;14.238;2024-03-23T01:44:29;4.00;;;2.90;;
84317;SDS011;74497;51.654;14.238;2024-03-23T01:46:55;14.87;;;5.20;;
84317;SDS011;74497;51.654;14.238;2024-03-23T01:49:21;4.43;;;3.77;;
84317;SDS011;74497;51.654;14.238;2024-03-23T01:51:46;10.37;;;4.83;;
84317;SDS011;74497;51.654;14.238;2024-03-23T01:54:12;11.27;;;4.40;;
84317;SDS011;74497;51.654;14.238;2024-03-23T01:56:38;11.07;;;4.97;;
84317;SDS011;74497;51.654;14.238;2024-03-23T01:59:04;6.03;;;3.97;;
84317;SDS011;74497;51.654;14.238;2024-03-23T02:01:34;9.37;;;4.93;;
84317;SDS011;74497;51.654;14.238;2024-03-23T02:04:04;7.33;;;4.50;;
84317;SDS011;74497;51.654;14.238;2024-03-23T02:06:30;3.93;;;3.27;;
84317;SDS011;74497;51.654;14.238;2024-03-23T02:08:56;5.30;;;3.73;;
84317;SDS011;74497;51.654;14.238;2024-03-23T02:11:22;7.53;;;5.23;;
84317;SDS011;74497;51.654;14.238;2024-03-23T02:13:48;6.73;;;3.67;;
84317;SDS011;74497;51.654;14.238;2024-03-23T02:16:13;9.67;;;4.90;;
84317;SDS011;74497;51.654;14.238;2024-03-23T02:18:39;5.00;;;2.63;;
84317;SDS011;74497;51.654;14.238;2024-03-23T02:21:05;8.63;;;4.77;;
84317;SDS011;74497;51.654;14.238;2024-03-23T02:23:30;6.33;;;3.73;;
84317;SDS011;74497;51.654;14.238;2024-03-23T02:25:56;12.77;;;4.40;;
84317;SDS011;74497;51.654;14.238;2024-03-23T02:28:22;5.33;;;3.83;;
84317;SDS011;74497;51.654;14.238;2024-03-23T02:30:48;10.43;;;3.40;;
84317;SDS011;74497;51.654;14.238;2024-03-23T02:33:17;6.80;;;4.43;;
84317;SDS011;74497;51.654;14.238;2024-03-23T02:35:43;4.40;;;3.37;;
84317;SDS011;74497;51.654;14.238;2024-03-23T02:38:10;5.00;;;3.20;;
84317;SDS011;74497;51.654;14.238;2024-03-23T02:40:35;7.53;;;3.50;;
84317;SDS011;74497;51.654;14.238;2024-03-23T02:43:02;8.13;;;4.53;;
84317;SDS011;74497;51.654;14.238;2024-03-23T02:45:28;3.80;;;2.27;;
84317;SDS011;74497;51.654;14.238;2024-03-23T02:47:54;2.63;;;2.43;;
84317;SDS011;74497;51.654;14.238;2024-03-23T02:50:20;4.83;;;3.17;;
84317;SDS011;74497;51.654;14.238;2024-03-23T02:52:46;6.03;;;4.37;;
84317;SDS011;74497;51.654;14.238;2024-03-23T02:55:13;4.77;;;3.07;;
84317;SDS011;74497;51.654;14.238;2024-03-23T02:57:39;1.50;;;1.30;;
84317;SDS011;74497;51.654;14.238;2024-03-23T03:00:05;10.10;;;1.23;;
84317;SDS011;74497;51.654;14.238;2024-03-23T03:02:32;0.77;;;0.77;;
84317;SDS011;74497;51.654;14.238;2024-03-23T03:04:59;1.50;;;0.80;;
84317;SDS011;74497;51.654;14.238;2024-03-23T03:07:24;1.70;;;0.60;;
84317;SDS011;74497;51.654;14.238;2024-03-23T03:09:50;1.50;;;1.27;;
84317;SDS011;74497;51.654;14.238;2024-03-23T03:12:16;0.77;;;0.77;;
84317;SDS011;74497;51.654;14.238;2024-03-23T03:14:42;0.83;;;0.83;;
84317;SDS011;74497;51.654;14.238;2024-03-23T03:17:07;5.23;;;0.80;;
84317;SDS011;74497;51.654;14.238;2024-03-23T03:19:33;0.70;;;0.70;;
84317;SDS011;74497;51.654;14.238;2024-03-23T03:21:59;9.77;;;1.50;;
84317;SDS011;74497;51.654;14.238;2024-03-23T03:24:24;4.10;;;0.97;;
84317;SDS011;74497;51.654;14.238;2024-03-23T03:26:50;5.47;;;1.67;;
84317;SDS011;74497;51.654;14.238;2024-03-23T03:29:16;1.30;;;1.20;;
84317;SDS011;74497;51.654;14.238;2024-03-23T03:31:42;0.83;;;0.83;;
84317;SDS011;74497;51.654;14.238;2024-03-23T03:34:08;0.70;;;0.70;;
84317;SDS011;74497;51.654;14.238;2024-03-23T03:36:33;1.10;;;1.10;;
84317;SDS011;74497;51.654;14.238;2024-03-23T03:38:59;0.80;;;0.80;;
84317;SDS011;74497;51.654;14.238;2024-03-23T03:41:25;1.20;;;1.20;;
84317;SDS011;74497;51.654;14.238;2024-03-23T03:43:50;1.37;;;1.30;;
84317;SDS011;74497;51.654;14.238;2024-03-23T03:46:16;0.97;;;0.90;;
84317;SDS011;74497;51.654;14.238;2024-03-23T03:48:42;1.73;;;1.63;;
84317;SDS011;74497;51.654;14.238;2024-03-23T03:51:10;1.00;;;1.00;;
84317;SDS011;74497;51.654;14.238;2024-03-23T03:53:36;1.17;;;1.07;;
84317;SDS011;74497;51.654;14.238;2024-03-23T03:56:01;1.30;;;1.30;;
84317;SDS011;74497;51.654;14.238;2024-03-23T03:58:27;0.93;;;0.93;;
84317;SDS011;74497;51.654;14.238;2024-03-23T04:00:53;0.70;;;0.70;;
84317;SDS011;74497;51.654;14.238;2024-03-23T04:03:19;0.87;;;0.87;;
84317;SDS011;74497;51.654;14.238;2024-03-23T04:05:51;4.90;;;0.90;;
84317;SDS011;74497;51.654;14.238;2024-03-23T04:08:20;0.90;;;0.90;;
84317;SDS011;74497;51.654;14.238;2024-03-23T04:10:46;5.00;;;0.93;;
84317;SDS011;74497;51.654;14.238;2024-03-23T04:13:12;1.60;;;1.50;;
84317;SDS011;74497;51.654;14.238;2024-03-23T04:15:39;1.20;;;1.10;;
84317;SDS011;74497;51.654;14.238;2024-03-23T04:18:05;0.70;;;0.70;;
84317;SDS011;74497;51.654;14.238;2024-03-23T04:20:31;3.80;;;1.57;;
84317;SDS011;74497;51.654;14.238;2024-03-23T04:22:57;1.07;;;1.07;;
84317;SDS011;74497;51.654;14.238;2024-03-23T04:25:26;1.20;;;1.20;;
84317;SDS011;74497;51.654;14.238;2024-03-23T04:27:52;0.73;;;0.73;;
84317;SDS011;74497;51.654;14.238;2024-03-23T04:30:18;0.90;;;0.90;;
84317;SDS011;74497;51.654;14.238;2024-03-23T04:32:44;1.30;;;1.30;;
84317;SDS011;74497;51.654;14.238;2024-03-23T04:35:10;1.37;;;1.00;;
84317;SDS011;74497;51.654;14.238;2024-03-23T04:37:36;1.13;;;1.13;;
84317;SDS011;74497;51.654;14.238;2024-03-23T04:40:08;1.53;;;1.43;;
84317;SDS011;74497;51.654;14.238;2024-03-23T04:42:34;0.60;;;0.60;;
84317;SDS011;74497;51.654;14.238;2024-03-23T04:45:00;0.93;;;0.93;;
84317;SDS011;74497;51.654;14.238;2024-03-23T04:47:26;0.90;;;0.90;;
84317;SDS011;74497;51.654;14.238;2024-03-23T04:49:52;1.60;;;1.23;;
84317;SDS011;74497;51.654;14.238;2024-03-23T04:52:18;1.60;;;0.83;;
84317;SDS011;74497;51.654;14.238;2024-03-23T04:54:43;0.97;;;0.97;;
84317;SDS011;74497;51.654;14.238;2024-03-23T04:57:10;1.03;;;1.03;;
84317;SDS011;74497;51.654;14.238;2024-03-23T04:59:36;1.10;;;1.10;;
84317;SDS011;74497;51.654;14.238;2024-03-23T05:02:02;0.70;;;0.70;;
84317;SDS011;74497;51.654;14.238;2024-03-23T05:04:28;0.73;;;0.73;;
84317;SDS011;74497;51.654;14.238;2024-03-23T05:06:54;0.93;;;0.93;;
84317;SDS011;74497;51.654;14.238;2024-03-23T05:09:20;0.70;;;0.70;;
84317;SDS011;74497;51.654;14.238;2024-03-23T05:11:46;6.27;;;0.93;;
84317;SDS011;74497;51.654;14.238;2024-03-23T05:14:15;0.90;;;0.90;;
84317;SDS011;74497;51.654;14.238;2024-03-23T05:16:41;9.63;;;1.37;;
84317;SDS011;74497;51.654;14.238;2024-03-23T05:19:06;0.90;;;0.90;;
84317;SDS011;74497;51.654;14.238;2024-03-23T05:21:32;0.53;;;0.53;;
84317;SDS011;74497;51.654;14.238;2024-03-23T05:23:58;1.87;;;1.30;;
84317;SDS011;74497;51.654;14.238;2024-03-23T05:26:24;1.00;;;1.00;;
84317;SDS011;74497;51.654;14.238;2024-03-23T05:28:49;0.93;;;0.93;;
84317;SDS011;74497;51.654;14.238;2024-03-23T05:31:25;2.53;;;0.70;;
84317;SDS011;74497;51.654;14.238;2024-03-23T05:33:52;1.13;;;1.10;;
84317;SDS011;74497;51.654;14.238;2024-03-23T05:36:17;1.07;;;0.97;;
84317;SDS011;74497;51.654;14.238;2024-03-23T05:38:43;1.20;;;1.20;;
84317;SDS011;74497;51.654;14.238;2024-03-23T05:41:09;0.83;;;0.83;;
84317;SDS011;74497;51.654;14.238;2024-03-23T05:43:35;4.87;;;0.87;;
84317;SDS011;74497;51.654;14.238;2024-03-23T05:46:01;0.87;;;0.87;;
84317;SDS011;74497;51.654;14.238;2024-03-23T05:48:31;4.80;;;1.17;;
84317;SDS011;74497;51.654;14.238;2024-03-23T05:50:57;3.97;;;0.77;;
84317;SDS011;74497;51.654;14.238;2024-03-23T05:53:23;1.13;;;1.10;;
84317;SDS011;74497;51.654;14.238;2024-03-23T05:55:49;0.60;;;0.60;;
84317;SDS011;74497;51.654;14.238;2024-03-23T05:58:16;1.23;;;1.20;;
84317;SDS011;74497;51.654;14.238;2024-03-23T06:00:43;1.43;;;1.33;;
84317;SDS011;74497;51.654;14.238;2024-03-23T06:03:09;0.90;;;0.90;;
84317;SDS011;74497;51.654;14.238;2024-03-23T06:05:35;6.57;;;2.17;;
84317;SDS011;74497;51.654;14.238;2024-03-23T06:08:04;0.73;;;0.73;;
84317;SDS011;74497;51.654;14.238;2024-03-23T06:10:30;1.00;;;1.00;;
84317;SDS011;74497;51.654;14.238;2024-03-23T06:12:57;0.70;;;0.70;;
84317;SDS011;74497;51.654;14.238;2024-03-23T06:15:24;0.73;;;0.73;;
84317;SDS011;74497;51.654;14.238;2024-03-23T06:17:49;1.00;;;0.83;;
84317;SDS011;74497;51.654;14.238;2024-03-23T06:20:15;0.70;;;0.70;;
84317;SDS011;74497;51.654;14.238;2024-03-23T06:22:40;4.90;;;1.80;;
84317;SDS011;74497;51.654;14.238;2024-03-23T06:25:06;1.03;;;0.97;;
84317;SDS011;74497;51.654;14.238;2024-03-23T06:27:32;1.30;;;1.30;;
84317;SDS011;74497;51.654;14.238;2024-03-23T06:29:59;8.67;;;1.27;;
84317;SDS011;74497;51.654;14.238;2024-03-23T06:32:24;2.20;;;0.90;;
84317;SDS011;74497;51.654;14.238;2024-03-23T06:34:50;11.60;;;1.57;;
84317;SDS011;74497;51.654;14.238;2024-03-23T06:37:16;1.90;;;1.13;;
84317;SDS011;74497;51.654;14.238;2024-03-23T06:39:41;0.77;;;0.77;;
84317;SDS011;74497;51.654;14.238;2024-03-23T06:42:07;0.90;;;0.90;;
84317;SDS011;74497;51.654;14.238;2024-03-23T06:44:33;0.70;;;0.70;;
84317;SDS011;74497;51.654;14.238;2024-03-23T06:46:59;8.60;;;1.37;;
84317;SDS011;74497;51.654;14.238;2024-03-23T06:49:25;0.50;;;0.50;;
84317;SDS011;74497;51.654;14.238;2024-03-23T06:51:50;0.80;;;0.80;;
84317;SDS011;74497;51.654;14.238;2024-03-23T06:54:16;0.60;;;0.60;;
84317;SDS011;74497;51.654;14.238;2024-03-23T06:56:46;1.20;;;1.20;;
84317;SDS011;74497;51.654;14.238;2024-03-23T06:59:11;1.40;;;1.33;;
84317;SDS011;74497;51.654;14.238;2024-03-23T07:01:37;0.90;;;0.90;;
84317;SDS011;74497;51.654;14.238;2024-03-23T07:04:03;1.80;;;0.80;;
84317;SDS011;74497;51.654;14.238;2024-03-23T07:06:29;1.00;;;1.00;;
84317;SDS011;74497;51.654;14.238;2024-03-23T07:08:55;0.70;;;0.70;;
84317;SDS011;74497;51.654;14.238;2024-03-23T07:11:21;1.03;;;1.03;;
84317;SDS011;74497;51.654;14.238;2024-03-23T07:13:50;1.20;;;1.20;;
84317;SDS011;74497;51.654;14.238;2024-03-23T07:16:17;0.93;;;0.93;;
84317;SDS011;74497;51.654;14.238;2024-03-23T07:18:43;0.90;;;0.90;;
84317;SDS011;74497;51.654;14.238;2024-03-23T07:21:09;0.80;;;0.80;;
84317;SDS011;74497;51.654;14.238;2024-03-23T07:23:34;0.73;;;0.73;;
84317;SDS011;74497;51.654;14.238;2024-03-23T07:26:01;0.80;;;0.80;;
84317;SDS011;74497;51.654;14.238;2024-03-23T07:28:28;7.20;;;1.00;;
84317;SDS011;74497;51.654;14.238;2024-03-23T07:33:29;0.70;;;0.70;;
84317;SDS011;74497;51.654;14.238;2024-03-23T07:35:55;4.57;;;1.07;;
84317;SDS011;74497;51.654;14.238;2024-03-23T07:38:21;0.70;;;0.70;;
84317;SDS011;74497;51.654;14.238;2024-03-23T07:40:47;0.60;;;0.60;;
84317;SDS011;74497;51.654;14.238;2024-03-23T07:43:15;3.50;;;0.77;;
84317;SDS011;74497;51.654;14.238;2024-03-23T07:45:41;0.70;;;0.70;;
84317;SDS011;74497;51.654;14.238;2024-03-23T07:48:06;14.03;;;0.90;;
84317;SDS011;74497;51.654;14.238;2024-03-23T07:50:32;1.10;;;1.10;;
84317;SDS011;74497;51.654;14.238;2024-03-23T07:52:58;2.33;;;1.27;;
84317;SDS011;74497;51.654;14.238;2024-03-23T07:55:23;1.23;;;1.23;;
84317;SDS011;74497;51.654;14.238;2024-03-23T07:57:50;2.80;;;1.33;;
84317;SDS011;74497;51.654;14.238;2024-03-23T08:00:16;0.93;;;0.90;;
84317;SDS011;74497;51.654;14.238;2024-03-23T08:02:42;2.20;;;1.47;;
84317;SDS011;74497;51.654;14.238;2024-03-23T08:05:08;0.80;;;0.80;;
84317;SDS011;74497;51.654;14.238;2024-03-23T08:07:34;0.97;;;0.97;;
84317;SDS011;74497;51.654;14.238;2024-03-23T08:09:59;1.50;;;1.30;;
84317;SDS011;74497;51.654;14.238;2024-03-23T08:12:25;1.30;;;1.27;;
84317;SDS011;74497;51.654;14.238;2024-03-23T08:14:51;6.87;;;1.30;;
84317;SDS011;74497;51.654;14.238;2024-03-23T08:17:16;1.33;;;1.23;;
84317;SDS011;74497;51.654;14.238;2024-03-23T08:19:42;0.93;;;0.93;;
84317;SDS011;74497;51.654;14.238;2024-03-23T08:22:08;1.07;;;1.07;;
84317;SDS011;74497;51.654;14.238;2024-03-23T08:24:34;0.73;;;0.73;;
84317;SDS011;74497;51.654;14.238;2024-03-23T08:27:00;3.00;;;2.20;;
84317;SDS011;74497;51.654;14.238;2024-03-23T08:29:25;1.20;;;1.20;;
84317;SDS011;74497;51.654;14.238;2024-03-23T08:31:51;1.43;;;1.33;;
84317;SDS011;74497;51.654;14.238;2024-03-23T08:34:17;1.20;;;1.20;;
84317;SDS011;74497;51.654;14.238;2024-03-23T08:36:42;14.40;;;1.53;;
84317;SDS011;74497;51.654;14.238;2024-03-23T08:39:09;1.30;;;1.20;;
84317;SDS011;74497;51.654;14.238;2024-03-23T08:41:34;1.27;;;0.70;;
84317;SDS011;74497;51.654;14.238;2024-03-23T08:44:00;0.97;;;0.93;;
84317;SDS011;74497;51.654;14.238;2024-03-23T08:46:26;1.03;;;1.03;;
84317;SDS011;74497;51.654;14.238;2024-03-23T08:48:52;1.97;;;0.87;;
84317;SDS011;74497;51.654;14.238;2024-03-23T08:51:18;0.80;;;0.80;;
84317;SDS011;74497;51.654;14.238;2024-03-23T08:53:44;1.10;;;0.97;;
84317;SDS011;74497;51.654;14.238;2024-03-23T08:56:10;0.83;;;0.83;;
84317;SDS011;74497;51.654;14.238;2024-03-23T08:58:37;1.03;;;1.03;;
84317;SDS011;74497;51.654;14.238;2024-03-23T09:01:06;1.60;;;1.43;;
84317;SDS011;74497;51.654;14.238;2024-03-23T09:03:32;1.00;;;1.00;;
84317;SDS011;74497;51.654;14.238;2024-03-23T09:05:58;0.87;;;0.87;;
84317;SDS011;74497;51.654;14.238;2024-03-23T09:08:24;1.23;;;1.23;;
84317;SDS011;74497;51.654;14.238;2024-03-23T09:10:51;1.27;;;1.27;;
84317;SDS011;74497;51.654;14.238;2024-03-23T09:13:17;1.80;;;1.37;;
84317;SDS011;74497;51.654;14.238;2024-03-23T09:15:46;1.40;;;1.30;;
84317;SDS011;74497;51.654;14.238;2024-03-23T09:18:13;1.80;;;1.53;;
84317;SDS011;74497;51.654;14.238;2024-03-23T09:20:39;1.27;;;1.17;;
84317;SDS011;74497;51.654;14.238;2024-03-23T09:23:05;1.83;;;1.73;;
84317;SDS011;74497;51.654;14.238;2024-03-23T09:25:30;0.73;;;0.73;;
84317;SDS011;74497;51.654;14.238;2024-03-23T09:27:56;1.27;;;1.03;;
84317;SDS011;74497;51.654;14.238;2024-03-23T09:30:22;1.40;;;1.30;;
84317;SDS011;74497;51.654;14.238;2024-03-23T09:32:47;1.23;;;1.13;;
84317;SDS011;74497;51.654;14.238;2024-03-23T09:35:13;0.90;;;0.90;;
84317;SDS011;74497;51.654;14.238;2024-03-23T09:37:39;0.77;;;0.77;;
84317;SDS011;74497;51.654;14.238;2024-03-23T09:40:05;1.33;;;1.30;;
84317;SDS011;74497;51.654;14.238;2024-03-23T09:42:35;1.00;;;0.90;;
84317;SDS011;74497;51.654;14.238;2024-03-23T09:45:01;1.53;;;1.43;;
84317;SDS011;74497;51.654;14.238;2024-03-23T09:47:27;0.80;;;0.80;;
84317;SDS011;74497;51.654;14.238;2024-03-23T09:49:53;1.00;;;1.00;;
84317;SDS011;74497;51.654;14.238;2024-03-23T09:52:20;1.80;;;1.73;;
84317;SDS011;74497;51.654;14.238;2024-03-23T09:54:45;8.50;;;1.43;;
84317;SDS011;74497;51.654;14.238;2024-03-23T09:57:11;1.73;;;1.63;;
84317;SDS011;74497;51.654;14.238;2024-03-23T09:59:37;2.63;;;2.53;;
84317;SDS011;74497;51.654;14.238;2024-03-23T10:02:02;2.40;;;2.27;;
84317;SDS011;74497;51.654;14.238;2024-03-23T10:04:38;1.70;;;1.60;;
84317;SDS011;74497;51.654;14.238;2024-03-23T10:07:11;2.03;;;1.80;;
84317;SDS011;74497;51.654;14.238;2024-03-23T10:09:43;0.93;;;0.93;;
84317;SDS011;74497;51.654;14.238;2024-03-23T10:12:12;1.93;;;1.83;;
84317;SDS011;74497;51.654;14.238;2024-03-23T10:14:39;1.60;;;1.50;;
84317;SDS011;74497;51.654;14.238;2024-03-23T10:17:15;0.93;;;0.93;;
84317;SDS011;74497;51.654;14.238;2024-03-23T10:19:45;1.30;;;1.27;;
84317;SDS011;74497;51.654;14.238;2024-03-23T10:22:19;6.33;;;2.07;;
84317;SDS011;74497;51.654;14.238;2024-03-23T10:24:48;0.90;;;0.90;;
84317;SDS011;74497;51.654;14.238;2024-03-23T10:27:20;0.80;;;0.80;;
84317;SDS011;74497;51.654;14.238;2024-03-23T10:29:50;0.80;;;0.80;;
84317;SDS011;74497;51.654;14.238;2024-03-23T10:32:16;0.80;;;0.80;;
84317;SDS011;74497;51.654;14.238;2024-03-23T10:34:43;0.90;;;0.90;;
84317;SDS011;74497;51.654;14.238;2024-03-23T10:37:09;1.17;;;1.10;;
84317;SDS011;74497;51.654;14.238;2024-03-23T10:39:39;0.83;;;0.83;;
84317;SDS011;74497;51.654;14.238;2024-03-23T10:42:06;0.93;;;0.93;;
84317;SDS011;74497;51.654;14.238;2024-03-23T10:44:33;0.90;;;0.90;;
84317;SDS011;74497;51.654;14.238;2024-03-23T10:47:00;1.10;;;1.10;;
84317;SDS011;74497;51.654;14.238;2024-03-23T10:49:30;0.80;;;0.80;;
84317;SDS011;74497;51.654;14.238;2024-03-23T10:51:58;0.83;;;0.83;;
84317;SDS011;74497;51.654;14.238;2024-03-23T10:54:25;1.60;;;0.97;;
84317;SDS011;74497;51.654;14.238;2024-03-23T10:56:59;0.70;;;0.70;;
84317;SDS011;74497;51.654;14.238;2024-03-23T10:59:27;0.70;;;0.70;;
84317;SDS011;74497;51.654;14.238;2024-03-23T11:01:56;0.70;;;0.70;;
84317;SDS011;74497;51.654;14.238;2024-03-23T11:04:29;0.90;;;0.90;;
84317;SDS011;74497;51.654;14.238;2024-03-23T11:06:59;0.80;;;0.80;;
84317;SDS011;74497;51.654;14.238;2024-03-23T11:12:13;4.10;;;1.33;;
84317;SDS011;74497;51.654;14.238;2024-03-23T11:17:30;1.00;;;1.00;;
84317;SDS011;74497;51.654;14.238;2024-03-23T11:22:44;0.80;;;0.80;;
84317;SDS011;74497;51.654;14.238;2024-03-23T11:27:43;0.90;;;0.90;;
84317;SDS011;74497;51.654;14.238;2024-03-23T11:30:20;0.83;;;0.83;;
84317;SDS011;74497;51.654;14.238;2024-03-23T11:32:53;0.80;;;0.80;;
84317;SDS011;74497;51.654;14.238;2024-03-23T11:35:30;0.90;;;0.90;;
84317;SDS011;74497;51.654;14.238;2024-03-23T11:40:31;0.80;;;0.80;;
84317;SDS011;74497;51.654;14.238;2024-03-23T11:43:05;1.13;;;1.10;;
84317;SDS011;74497;51.654;14.238;2024-03-23T11:45:35;1.00;;;1.00;;
84317;SDS011;74497;51.654;14.238;2024-03-23T11:48:03;1.17;;;1.17;;
84317;SDS011;74497;51.654;14.238;2024-03-23T11:50:36;0.80;;;0.80;;
84317;SDS011;74497;51.654;14.238;2024-03-23T11:53:12;0.80;;;0.80;;
84317;SDS011;74497;51.654;14.238;2024-03-23T11:55:38;0.73;;;0.73;;
84317;SDS011;74497;51.654;14.238;2024-03-23T11:58:06;0.90;;;0.90;;
84317;SDS011;74497;51.654;14.238;2024-03-23T12:00:33;0.90;;;0.90;;
84317;SDS011;74497;51.654;14.238;2024-03-23T12:03:00;0.73;;;0.73;;
84317;SDS011;74497;51.654;14.238;2024-03-23T12:05:27;0.97;;;0.97;;
84317;SDS011;74497;51.654;14.238;2024-03-23T12:07:53;0.87;;;0.87;;
84317;SDS011;74497;51.654;14.238;2024-03-23T12:10:19;0.83;;;0.83;;
84317;SDS011;74497;51.654;14.238;2024-03-23T12:12:44;1.03;;;1.03;;
84317;SDS011;74497;51.654;14.238;2024-03-23T12:15:10;1.00;;;1.00;;
84317;SDS011;74497;51.654;14.238;2024-03-23T12:17:38;0.90;;;0.90;;
84317;SDS011;74497;51.654;14.238;2024-03-23T12:20:04;1.00;;;1.00;;
84317;SDS011;74497;51.654;14.238;2024-03-23T12:22:30;0.73;;;0.73;;
84317;SDS011;74497;51.654;14.238;2024-03-23T12:24:56;0.70;;;0.70;;
84317;SDS011;74497;51.654;14.238;2024-03-23T12:27:22;1.60;;;1.17;;
84317;SDS011;74497;51.654;14.238;2024-03-23T12:29:48;0.90;;;0.90;;
84317;SDS011;74497;51.654;14.238;2024-03-23T12:32:14;0.80;;;0.80;;
84317;SDS011;74497;51.654;14.238;2024-03-23T12:34:40;0.60;;;0.60;;
84317;SDS011;74497;51.654;14.238;2024-03-23T12:37:06;0.70;;;0.70;;
84317;SDS011;74497;51.654;14.238;2024-03-23T12:39:32;0.90;;;0.90;;
84317;SDS011;74497;51.654;14.238;2024-03-23T12:41:58;0.80;;;0.80;;
84317;SDS011;74497;51.654;14.238;2024-03-23T12:44:23;0.70;;;0.70;;
84317;SDS011;74497;51.654;14.238;2024-03-23T12:46:49;0.97;;;0.97;;
84317;SDS011;74497;51.654;14.238;2024-03-23T12:49:15;0.90;;;0.90;;
84317;SDS011;74497;51.654;14.238;2024-03-23T12:51:46;0.70;;;0.70;;
84317;SDS011;74497;51.654;14.238;2024-03-23T12:54:18;0.80;;;0.80;;
84317;SDS011;74497;51.654;14.238;2024-03-23T12:56:45;1.03;;;1.03;;
84317;SDS011;74497;51.654;14.238;2024-03-23T12:59:11;0.80;;;0.80;;
84317;SDS011;74497;51.654;14.238;2024-03-23T13:01:36;0.90;;;0.90;;
84317;SDS011;74497;51.654;14.238;2024-03-23T13:04:02;1.03;;;1.03;;
84317;SDS011;74497;51.654;14.238;2024-03-23T13:06:28;0.70;;;0.70;;
84317;SDS011;74497;51.654;14.238;2024-03-23T13:08:57;0.80;;;0.80;;
84317;SDS011;74497;51.654;14.238;2024-03-23T13:11:23;0.70;;;0.70;;
84317;SDS011;74497;51.654;14.238;2024-03-23T13:13:49;0.77;;;0.77;;
84317;SDS011;74497;51.654;14.238;2024-03-23T13:16:14;0.80;;;0.80;;
84317;SDS011;74497;51.654;14.238;2024-03-23T13:18:40;1.10;;;1.10;;
84317;SDS011;74497;51.654;14.238;2024-03-23T13:21:06;0.80;;;0.80;;
84317;SDS011;74497;51.654;14.238;2024-03-23T13:23:31;0.83;;;0.83;;
84317;SDS011;74497;51.654;14.238;2024-03-23T13:25:58;0.80;;;0.80;;
84317;SDS011;74497;51.654;14.238;2024-03-23T13:28:23;0.90;;;0.90;;
84317;SDS011;74497;51.654;14.238;2024-03-23T13:30:55;0.80;;;0.80;;
84317;SDS011;74497;51.654;14.238;2024-03-23T13:33:23;0.60;;;0.60;;
84317;SDS011;74497;51.654;14.238;2024-03-23T13:35:49;0.80;;;0.80;;
84317;SDS011;74497;51.654;14.238;2024-03-23T13:38:18;0.90;;;0.90;;
84317;SDS011;74497;51.654;14.238;2024-03-23T13:40:54;0.70;;;0.70;;
84317;SDS011;74497;51.654;14.238;2024-03-23T13:43:24;1.00;;;1.00;;
84317;SDS011;74497;51.654;14.238;2024-03-23T13:45:54;11.90;;;1.10;;
84317;SDS011;74497;51.654;14.238;2024-03-23T13:48:21;0.83;;;0.83;;
84317;SDS011;74497;51.654;14.238;2024-03-23T13:51:02;0.80;;;0.80;;
84317;SDS011;74497;51.654;14.238;2024-03-23T13:53:29;0.70;;;0.70;;
84317;SDS011;74497;51.654;14.238;2024-03-23T13:55:55;0.70;;;0.70;;
84317;SDS011;74497;51.654;14.238;2024-03-23T13:58:21;0.80;;;0.80;;
84317;SDS011;74497;51.654;14.238;2024-03-23T14:00:47;0.80;;;0.80;;
84317;SDS011;74497;51.654;14.238;2024-03-23T14:03:13;1.00;;;1.00;;
84317;SDS011;74497;51.654;14.238;2024-03-23T14:05:40;1.23;;;1.23;;
84317;SDS011;74497;51.654;14.238;2024-03-23T14:08:06;0.80;;;0.80;;
84317;SDS011;74497;51.654;14.238;2024-03-23T14:10:36;1.10;;;1.00;;
84317;SDS011;74497;51.654;14.238;2024-03-23T14:13:05;0.70;;;0.70;;
84317;SDS011;74497;51.654;14.238;2024-03-23T14:15:31;0.83;;;0.83;;
84317;SDS011;74497;51.654;14.238;2024-03-23T14:17:58;0.70;;;0.70;;
84317;SDS011;74497;51.654;14.238;2024-03-23T14:20:24;0.70;;;0.70;;
84317;SDS011;74497;51.654;14.238;2024-03-23T14:22:51;7.17;;;1.10;;
84317;SDS011;74497;51.654;14.238;2024-03-23T14:25:17;0.83;;;0.83;;
84317;SDS011;74497;51.654;14.238;2024-03-23T14:27:44;0.80;;;0.80;;
84317;SDS011;74497;51.654;14.238;2024-03-23T14:30:11;1.37;;;1.37;;
84317;SDS011;74497;51.654;14.238;2024-03-23T14:32:37;0.97;;;0.97;;
84317;SDS011;74497;51.654;14.238;2024-03-23T14:35:04;1.50;;;1.43;;
84317;SDS011;74497;51.654;14.238;2024-03-23T14:37:31;1.60;;;1.10;;
84317;SDS011;74497;51.654;14.238;2024-03-23T14:39:57;0.77;;;0.77;;
84317;SDS011;74497;51.654;14.238;2024-03-23T14:42:23;0.80;;;0.80;;
84317;SDS011;74497;51.654;14.238;2024-03-23T14:44:52;1.10;;;1.00;;
84317;SDS011;74497;51.654;14.238;2024-03-23T14:47:18;1.10;;;1.07;;
84317;SDS011;74497;51.654;14.238;2024-03-23T14:49:44;2.13;;;1.93;;
84317;SDS011;74497;51.654;14.238;2024-03-23T14:52:13;2.33;;;0.90;;
84317;SDS011;74497;51.654;14.238;2024-03-23T14:54:39;1.07;;;1.07;;
84317;SDS011;74497;51.654;14.238;2024-03-23T14:57:05;0.60;;;0.60;;
84317;SDS011;74497;51.654;14.238;2024-03-23T14:59:32;1.03;;;0.93;;
84317;SDS011;74497;51.654;14.238;2024-03-23T15:01:57;0.90;;;0.90;;
84317;SDS011;74497;51.654;14.238;2024-03-23T15:04:23;0.53;;;0.53;;
84317;SDS011;74497;51.654;14.238;2024-03-23T15:06:49;1.23;;;1.13;;
84317;SDS011;74497;51.654;14.238;2024-03-23T15:09:15;1.10;;;1.10;;
84317;SDS011;74497;51.654;14.238;2024-03-23T15:11:41;0.77;;;0.77;;
84317;SDS011;74497;51.654;14.238;2024-03-23T15:14:07;1.00;;;0.73;;
84317;SDS011;74497;51.654;14.238;2024-03-23T15:16:33;1.00;;;1.00;;
84317;SDS011;74497;51.654;14.238;2024-03-23T15:18:59;1.00;;;1.00;;
84317;SDS011;74497;51.654;14.238;2024-03-23T15:21:25;1.43;;;1.33;;
84317;SDS011;74497;51.654;14.238;2024-03-23T15:23:51;0.70;;;0.70;;
84317;SDS011;74497;51.654;14.238;2024-03-23T15:26:16;0.70;;;0.70;;
84317;SDS011;74497;51.654;14.238;2024-03-23T15:28:42;3.60;;;0.90;;
84317;SDS011;74497;51.654;14.238;2024-03-23T15:31:20;15.77;;;1.30;;
84317;SDS011;74497;51.654;14.238;2024-03-23T15:33:45;1.93;;;0.97;;
84317;SDS011;74497;51.654;14.238;2024-03-23T15:36:11;0.70;;;0.70;;
84317;SDS011;74497;51.654;14.238;2024-03-23T15:38:37;2.33;;;1.23;;
84317;SDS011;74497;51.654;14.238;2024-03-23T15:41:04;1.17;;;1.17;;